LRTR/TSR METAR and TAF weather

Enter ICAO airport designator
Station Type Date Time Source
LRTR METAR 2019/12/08 11:30 UTC NOAA

LRTR 081130Z 16006KT 0600 R11/0800U R29/0700U FG VV001 04/04 Q1020 R11/190095 NOSIG


Station Type Date Time Source
LRTR Decoded METAR 2019/12/08 11:30 UTC NOAA

Timisoara, Romania (LRTR) 45-46N 021-15E 88M
Dec 08, 2019 - 06:30 AM EST / 2019.12.08 1130 UTC
Wind: from the SSE (160 degrees) at 7 MPH (6 KT):0
Visibility: less than 1 mile:0
Sky conditions: obscured
Weather: fog
Temperature: 39 F (4 C)
Dew Point: 39 F (4 C)
Relative Humidity: 100%
Pressure (altimeter): 30.12 in. Hg (1020 hPa)
ob: LRTR 081130Z 16006KT 0600 R11/0800U R29/0700U FG VV001 04/04 Q1020 R11/190095 NOSIG
cycle: 11

Station Type Date Time Source
LRTR TAF 2019/12/08 12:33 UTC NOAA

TAF LRTR 081100Z 0812/0912 16007KT 0500 FG OVC001 PROB40
TEMPO 0812/0815 1500 BR SCT002 BKN003
TEMPO 0817/0906 0200 FG
BECMG 0906/0908 1500 BR BKN003
BECMG 0909/0911 5000 BKN010

Example: see airport list